createdAt,value
2019-01-06T00:02:07.745Z,-0.20
2019-01-06T00:06:45.315Z,-0.10
2019-01-06T00:11:22.517Z,0.00
2019-01-06T00:13:55.987Z,0.10
2019-01-06T00:17:02.705Z,0.10
2019-01-06T00:21:43.395Z,0.10
2019-01-06T00:24:15.974Z,0.10
2019-01-06T00:26:49.594Z,0.20
2019-01-06T00:29:30.165Z,0.20
2019-01-06T00:32:04.228Z,0.20
2019-01-06T00:34:39.077Z,0.10
2019-01-06T00:39:19.833Z,0.10
2019-01-06T00:42:12.405Z,0.10
2019-01-06T00:44:46.304Z,0.10
2019-01-06T00:47:18.848Z,0.10
2019-01-06T00:49:52.744Z,0.00
2019-01-06T00:52:26.396Z,0.00
2019-01-06T00:55:32.198Z,-0.20
2019-01-06T00:58:05.841Z,-0.30
2019-01-06T01:00:38.741Z,-0.30
2019-01-06T01:03:12.378Z,-0.30
2019-01-06T01:05:53.856Z,-0.40
2019-01-06T01:08:27.329Z,-0.50
2019-01-06T01:11:03.048Z,-0.60
2019-01-06T01:13:36.625Z,-0.60
2019-01-06T01:16:11.232Z,-0.70
2019-01-06T01:20:46.432Z,-0.70
2019-01-06T01:23:20.242Z,-0.80
2019-01-06T01:25:52.787Z,-1.00
2019-01-06T01:28:26.519Z,-0.90
2019-01-06T01:31:05.093Z,-0.80
2019-01-06T01:33:38.942Z,-0.70
2019-01-06T01:36:14.560Z,-0.60
2019-01-06T01:38:48.438Z,-0.60
2019-01-06T01:41:28.035Z,-0.50
2019-01-06T01:46:05.302Z,-0.50
2019-01-06T01:48:39.037Z,-0.50
2019-01-06T01:51:47.043Z,-0.50
2019-01-06T01:54:20.570Z,-0.40
2019-01-06T01:56:53.256Z,-0.30
2019-01-06T01:59:26.924Z,-0.30
2019-01-06T02:02:00.650Z,-0.20
2019-01-06T02:04:49.100Z,-0.20
2019-01-06T02:07:23.226Z,-0.20
2019-01-06T02:09:56.991Z,-0.10
2019-01-06T02:12:34.398Z,-0.10
2019-01-06T02:17:10.717Z,-0.10
2019-01-06T02:21:46.930Z,-0.10
2019-01-06T02:24:23.510Z,-0.10
2019-01-06T02:29:02.846Z,-0.10
2019-01-06T02:31:36.543Z,-0.10
2019-01-06T02:34:17.421Z,-0.10
2019-01-06T02:37:54.234Z,-0.10
2019-01-06T02:40:35.171Z,0.00
2019-01-06T02:43:08.756Z,0.00
2019-01-06T02:45:42.440Z,0.00
2019-01-06T02:48:17.927Z,-0.10
2019-01-06T02:50:51.990Z,-0.10
2019-01-06T02:53:25.663Z,-0.10
2019-01-06T02:58:01.783Z,-0.20
2019-01-06T03:00:35.606Z,-0.10
2019-01-06T03:03:09.267Z,-0.10
2019-01-06T03:05:45.838Z,-0.10
2019-01-06T03:08:26.750Z,-0.10
2019-01-06T03:11:00.289Z,0.00
2019-01-06T03:13:33.824Z,0.10
2019-01-06T03:16:09.393Z,0.10
2019-01-06T03:20:50.786Z,0.20
2019-01-06T03:23:29.349Z,0.20
2019-01-06T03:28:05.476Z,0.20
2019-01-06T03:30:39.917Z,0.20
2019-01-06T03:33:12.629Z,0.20
2019-01-06T03:35:52.213Z,0.20
2019-01-06T03:38:26.321Z,0.20
2019-01-06T03:41:59.173Z,0.30
2019-01-06T03:44:33.124Z,0.30
2019-01-06T03:47:06.826Z,0.30
2019-01-06T03:51:45.097Z,0.40
2019-01-06T03:55:17.014Z,0.30
2019-01-06T03:59:54.392Z,0.30
2019-01-06T04:02:28.017Z,0.30
2019-01-06T04:05:02.230Z,0.40
2019-01-06T04:07:35.887Z,0.40
2019-01-06T04:10:41.177Z,0.40
2019-01-06T04:13:14.920Z,0.40
2019-01-06T04:16:55.914Z,0.50
2019-01-06T04:19:29.650Z,0.50
2019-01-06T04:24:08.080Z,0.60
2019-01-06T04:26:41.606Z,0.60
2019-01-06T04:29:16.318Z,0.60
2019-01-06T04:32:53.396Z,0.70
2019-01-06T04:35:31.976Z,0.80
2019-01-06T04:38:06.456Z,0.80
2019-01-06T04:42:41.726Z,0.90
2019-01-06T04:45:20.255Z,1.00
2019-01-06T04:47:57.844Z,1.00
2019-01-06T04:50:31.250Z,1.00
2019-01-06T04:53:05.170Z,1.00
2019-01-06T04:55:44.832Z,1.00
2019-01-06T05:00:24.288Z,1.00
2019-01-06T05:02:57.925Z,1.10
2019-01-06T05:05:32.106Z,1.10
2019-01-06T05:08:08.611Z,1.10
2019-01-06T05:11:49.656Z,1.20
2019-01-06T05:14:23.552Z,1.20
2019-01-06T05:18:58.958Z,1.20
2019-01-06T05:21:34.500Z,1.20
2019-01-06T05:26:09.766Z,1.20
2019-01-06T05:30:47.827Z,1.20
2019-01-06T05:33:21.781Z,1.20
2019-01-06T05:36:00.332Z,1.30
2019-01-06T05:38:34.160Z,1.20
2019-01-06T05:42:09.891Z,1.30
2019-01-06T05:44:48.944Z,1.30
2019-01-06T05:47:33.381Z,1.30
2019-01-06T05:50:08.039Z,1.30
2019-01-06T05:53:14.537Z,1.30
2019-01-06T05:56:05.668Z,1.30
2019-01-06T05:58:57.135Z,1.30
2019-01-06T06:01:33.894Z,1.40
2019-01-06T06:04:07.804Z,1.40
2019-01-06T06:08:42.953Z,1.30
2019-01-06T06:13:19.146Z,1.30
2019-01-06T06:18:05.315Z,1.30
2019-01-06T06:21:36.288Z,1.40
2019-01-06T06:24:10.259Z,1.30
2019-01-06T06:26:49.816Z,1.30
2019-01-06T06:31:27.082Z,1.30
2019-01-06T06:34:17.425Z,1.30
2019-01-06T06:36:51.092Z,1.30
2019-01-06T06:39:24.922Z,1.30
2019-01-06T06:42:31.562Z,1.30
2019-01-06T06:45:05.611Z,1.30
2019-01-06T06:47:39.520Z,1.30
2019-01-06T06:50:14.899Z,1.30
2019-01-06T06:52:47.814Z,1.30
2019-01-06T06:55:23.252Z,1.40
2019-01-06T06:58:09.028Z,1.40
2019-01-06T07:00:45.732Z,1.40
2019-01-06T07:03:38.595Z,1.50
2019-01-06T07:06:16.979Z,1.50
2019-01-06T07:08:50.565Z,1.50
2019-01-06T07:11:23.095Z,1.40
2019-01-06T07:14:02.993Z,1.40
2019-01-06T07:16:47.871Z,1.40
2019-01-06T07:19:21.898Z,1.50
2019-01-06T07:21:56.263Z,1.50
2019-01-06T07:24:39.340Z,1.50
2019-01-06T07:27:12.736Z,1.40
2019-01-06T07:29:49.615Z,1.50
2019-01-06T07:32:23.313Z,1.40
2019-01-06T07:36:59.079Z,1.40
2019-01-06T07:39:34.499Z,1.40
2019-01-06T07:42:10.041Z,1.40
2019-01-06T07:44:43.665Z,1.40
2019-01-06T07:47:24.345Z,1.40
2019-01-06T07:49:58.061Z,1.50
2019-01-06T07:53:36.981Z,1.40
2019-01-06T07:56:42.614Z,1.50
2019-01-06T07:59:17.445Z,1.50
2019-01-06T08:01:50.907Z,1.50
2019-01-06T08:04:27.675Z,1.50
2019-01-06T08:07:01.052Z,1.50
2019-01-06T08:09:34.098Z,1.50
2019-01-06T08:12:07.532Z,1.50
2019-01-06T08:14:44.370Z,1.50
2019-01-06T08:17:18.279Z,1.50
2019-01-06T08:19:51.268Z,1.60
2019-01-06T08:22:25.790Z,1.60
2019-01-06T08:24:59.441Z,1.60
2019-01-06T08:27:38.921Z,1.60
2019-01-06T08:30:13.038Z,1.60
2019-01-06T08:34:55.361Z,1.60
2019-01-06T08:37:29.422Z,1.60
2019-01-06T08:40:03.804Z,1.60
2019-01-06T08:43:43.012Z,1.60
2019-01-06T08:46:16.825Z,1.60
2019-01-06T08:48:51.482Z,1.60
2019-01-06T08:51:25.150Z,1.70
2019-01-06T08:56:04.385Z,1.70
2019-01-06T08:59:10.061Z,1.70
2019-01-06T09:01:43.867Z,1.70
2019-01-06T09:04:20.256Z,1.80
2019-01-06T09:06:54.126Z,1.80
2019-01-06T09:11:34.537Z,1.80
2019-01-06T09:14:07.582Z,1.90
2019-01-06T09:16:53.221Z,1.80
2019-01-06T09:19:33.067Z,1.80
2019-01-06T09:24:11.588Z,1.90
2019-01-06T09:28:52.539Z,1.90
2019-01-06T09:31:29.993Z,1.80
2019-01-06T09:34:04.100Z,1.80
2019-01-06T09:36:43.521Z,1.80
2019-01-06T09:39:36.720Z,1.80
2019-01-06T09:42:30.186Z,1.80
2019-01-06T09:45:03.699Z,1.90
2019-01-06T09:47:37.596Z,1.90
2019-01-06T09:50:11.671Z,1.90
2019-01-06T09:52:47.966Z,1.90
2019-01-06T09:57:25.453Z,1.90
2019-01-06T09:59:59.174Z,1.90
2019-01-06T10:02:37.074Z,1.80
2019-01-06T10:05:09.821Z,1.80
2019-01-06T10:09:47.028Z,1.80
2019-01-06T10:12:19.597Z,1.90
2019-01-06T10:14:59.128Z,1.90
2019-01-06T10:17:32.423Z,1.90
2019-01-06T10:20:06.433Z,1.90
2019-01-06T10:22:42.840Z,1.90
2019-01-06T10:27:19.620Z,1.90
2019-01-06T10:29:58.133Z,1.90
2019-01-06T10:32:34.194Z,1.80
2019-01-06T10:35:07.959Z,1.80
2019-01-06T10:37:42.795Z,1.80
2019-01-06T10:42:18.181Z,1.80
2019-01-06T10:44:56.558Z,1.80
2019-01-06T10:47:30.988Z,1.80
2019-01-06T10:50:04.612Z,1.80
2019-01-06T10:52:38.409Z,1.80
2019-01-06T10:56:15.610Z,1.90
2019-01-06T10:58:51.357Z,1.80
2019-01-06T11:01:30.184Z,1.80
2019-01-06T11:04:23.652Z,1.80
2019-01-06T11:09:02.378Z,1.90
2019-01-06T11:12:37.142Z,1.90
2019-01-06T11:17:16.050Z,1.90
2019-01-06T11:21:51.409Z,1.90
2019-01-06T11:24:25.522Z,1.90
2019-01-06T11:27:15.083Z,1.90
2019-01-06T11:29:49.163Z,1.90
2019-01-06T11:34:24.252Z,2.00
2019-01-06T11:37:28.942Z,2.00
2019-01-06T11:41:07.904Z,2.00
2019-01-06T11:43:39.052Z,2.10
2019-01-06T11:46:24.560Z,2.10
2019-01-06T11:49:02.347Z,2.10
2019-01-06T11:51:36.047Z,2.10
2019-01-06T11:54:24.797Z,2.10
2019-01-06T11:56:58.379Z,2.10
2019-01-06T11:59:32.592Z,2.10
2019-01-06T12:02:07.445Z,2.10
2019-01-06T12:04:41.224Z,2.20
2019-01-06T12:09:22.366Z,2.20
2019-01-06T12:11:55.256Z,2.30
2019-01-06T12:14:27.816Z,2.20
2019-01-06T12:17:01.843Z,2.20
2019-01-06T12:19:35.573Z,2.30
2019-01-06T12:22:09.673Z,2.30
2019-01-06T12:26:45.919Z,2.30
2019-01-06T12:29:26.203Z,2.30
2019-01-06T12:32:04.612Z,2.40
2019-01-06T12:34:41.389Z,2.40
2019-01-06T12:38:20.142Z,2.40
2019-01-06T12:40:59.731Z,2.40
2019-01-06T12:43:42.235Z,2.40
2019-01-06T12:46:16.105Z,2.40
2019-01-06T12:50:54.222Z,2.50
2019-01-06T12:53:28.259Z,2.50
2019-01-06T12:56:01.934Z,2.40
2019-01-06T12:58:36.000Z,2.50
2019-01-06T13:01:13.467Z,2.40
2019-01-06T13:03:47.649Z,2.50
2019-01-06T13:07:18.696Z,2.50
2019-01-06T13:10:06.808Z,2.50
2019-01-06T13:13:38.702Z,2.50
2019-01-06T13:16:12.513Z,2.50
2019-01-06T13:20:53.682Z,2.50
2019-01-06T13:23:27.457Z,2.40
2019-01-06T13:26:01.926Z,2.50
2019-01-06T13:30:40.450Z,2.50
2019-01-06T13:33:14.105Z,2.50
2019-01-06T13:35:58.710Z,2.50
2019-01-06T13:39:30.555Z,2.50
2019-01-06T13:42:03.532Z,2.40
2019-01-06T13:44:38.915Z,2.40
2019-01-06T13:49:17.159Z,2.40
2019-01-06T13:51:54.540Z,2.40
2019-01-06T13:54:34.348Z,2.40
2019-01-06T13:59:10.608Z,2.40
2019-01-06T14:01:50.122Z,2.40
2019-01-06T14:04:23.507Z,2.40
2019-01-06T14:07:01.158Z,2.40
2019-01-06T14:11:42.303Z,2.40
2019-01-06T14:16:17.680Z,2.40
2019-01-06T14:20:53.846Z,2.40
2019-01-06T14:23:27.685Z,2.40
2019-01-06T14:26:08.184Z,2.40
2019-01-06T14:28:43.936Z,2.40
2019-01-06T14:31:17.530Z,2.40
2019-01-06T14:34:03.144Z,2.40
2019-01-06T14:36:36.747Z,2.40
2019-01-06T14:39:10.847Z,2.40
2019-01-06T14:41:43.766Z,2.40
2019-01-06T14:44:17.592Z,2.40
2019-01-06T14:46:50.148Z,2.40
2019-01-06T14:49:58.362Z,2.40
2019-01-06T14:52:31.881Z,2.30
2019-01-06T14:55:14.729Z,2.30
2019-01-06T14:57:48.425Z,2.30
2019-01-06T15:02:27.833Z,2.30
2019-01-06T15:05:08.380Z,2.30
2019-01-06T15:07:43.839Z,2.40
2019-01-06T15:10:17.655Z,2.40
2019-01-06T15:12:55.159Z,2.30
2019-01-06T15:15:28.885Z,2.40
2019-01-06T15:18:01.817Z,2.40
2019-01-06T15:22:38.839Z,2.40
2019-01-06T15:25:12.391Z,2.40
2019-01-06T15:29:47.709Z,2.40
2019-01-06T15:34:25.167Z,2.40
2019-01-06T15:36:57.815Z,2.40
2019-01-06T15:39:34.513Z,2.40
2019-01-06T15:42:11.084Z,2.40
2019-01-06T15:44:44.902Z,2.40
2019-01-06T15:47:23.338Z,2.40
2019-01-06T15:50:02.010Z,2.40
2019-01-06T15:52:34.700Z,2.40
2019-01-06T15:56:06.604Z,2.40
2019-01-06T15:58:40.168Z,2.40
2019-01-06T16:01:21.653Z,2.30
2019-01-06T16:03:55.204Z,2.40
2019-01-06T16:06:29.033Z,2.40
2019-01-06T16:09:02.840Z,2.40
2019-01-06T16:11:35.608Z,2.30
2019-01-06T16:14:09.064Z,2.30
2019-01-06T16:16:47.692Z,2.30
2019-01-06T16:19:21.459Z,2.30
2019-01-06T16:22:27.315Z,2.40
2019-01-06T16:25:34.880Z,2.30
2019-01-06T16:28:16.424Z,2.30
2019-01-06T16:31:49.493Z,2.30
2019-01-06T16:34:25.876Z,2.30
2019-01-06T16:37:01.420Z,2.20
2019-01-06T16:39:36.437Z,2.30
2019-01-06T16:42:09.002Z,2.20
2019-01-06T16:44:43.329Z,2.20
2019-01-06T16:49:21.550Z,2.30
2019-01-06T16:53:58.822Z,2.30
2019-01-06T16:56:47.396Z,2.30
2019-01-06T16:59:26.151Z,2.20
2019-01-06T17:02:02.611Z,2.20
2019-01-06T17:04:43.133Z,2.20
2019-01-06T17:07:16.939Z,2.20
2019-01-06T17:09:53.492Z,2.20
2019-01-06T17:12:27.285Z,2.20
2019-01-06T17:17:06.980Z,2.20
2019-01-06T17:19:49.489Z,2.20
2019-01-06T17:22:26.939Z,2.10
2019-01-06T17:25:00.564Z,2.20
2019-01-06T17:27:37.218Z,2.20
2019-01-06T17:32:16.603Z,2.20
2019-01-06T17:36:53.869Z,2.20
2019-01-06T17:40:01.706Z,2.20
2019-01-06T17:42:36.257Z,2.20
2019-01-06T17:45:35.132Z,2.20
2019-01-06T17:48:39.331Z,2.20
2019-01-06T17:51:13.074Z,2.20
2019-01-06T17:54:49.977Z,2.20
2019-01-06T17:57:23.620Z,2.20
2019-01-06T17:59:59.428Z,2.20
2019-01-06T18:03:40.133Z,2.20
2019-01-06T18:06:48.359Z,2.20
2019-01-06T18:09:26.973Z,2.20
2019-01-06T18:12:06.617Z,2.20
2019-01-06T18:14:40.218Z,2.20
2019-01-06T18:17:12.899Z,2.10
2019-01-06T18:19:50.274Z,2.20
2019-01-06T18:22:40.988Z,2.20
2019-01-06T18:27:17.182Z,2.20
2019-01-06T18:29:49.842Z,2.20
2019-01-06T18:32:24.266Z,2.10
2019-01-06T18:35:03.134Z,2.20
2019-01-06T18:37:36.664Z,2.20
2019-01-06T18:40:26.819Z,2.20
2019-01-06T18:43:00.565Z,2.20
2019-01-06T18:45:34.125Z,2.20
2019-01-06T18:48:09.634Z,2.10
2019-01-06T18:50:43.423Z,2.10
2019-01-06T18:53:17.069Z,2.20
2019-01-06T18:56:05.771Z,2.10
2019-01-06T18:59:42.582Z,2.10
2019-01-06T19:02:20.247Z,2.10
2019-01-06T19:04:57.652Z,2.20
2019-01-06T19:09:35.243Z,2.10
2019-01-06T19:12:09.150Z,2.10
2019-01-06T19:14:48.894Z,2.10
2019-01-06T19:17:21.430Z,2.10
2019-01-06T19:19:55.320Z,2.10
2019-01-06T19:22:29.086Z,2.10
2019-01-06T19:27:06.331Z,2.10
2019-01-06T19:31:42.671Z,2.10
2019-01-06T19:34:26.395Z,2.10
2019-01-06T19:37:04.978Z,2.10
2019-01-06T19:39:38.824Z,2.10
2019-01-06T19:43:15.514Z,2.10
2019-01-06T19:47:55.112Z,2.10
2019-01-06T19:52:32.331Z,2.10
2019-01-06T19:55:13.899Z,2.10
2019-01-06T19:57:47.557Z,2.10
2019-01-06T20:00:20.261Z,2.00
2019-01-06T20:02:58.722Z,2.10
2019-01-06T20:05:33.219Z,2.10
2019-01-06T20:09:12.968Z,2.10
2019-01-06T20:11:46.985Z,2.10
2019-01-06T20:14:22.447Z,2.10
2019-01-06T20:17:13.114Z,2.10
2019-01-06T20:19:56.535Z,2.10
2019-01-06T20:22:30.551Z,2.10
2019-01-06T20:25:04.292Z,2.10
2019-01-06T20:27:38.562Z,2.10
2019-01-06T20:30:12.812Z,2.20
2019-01-06T20:32:46.647Z,2.20
2019-01-06T20:35:26.093Z,2.20
2019-01-06T20:37:59.930Z,2.20
2019-01-06T20:40:33.349Z,2.20
2019-01-06T20:43:07.951Z,2.20
2019-01-06T20:47:46.132Z,2.20
2019-01-06T20:50:22.778Z,2.20
2019-01-06T20:52:58.332Z,2.20
2019-01-06T20:55:30.987Z,2.20
2019-01-06T20:58:04.589Z,2.20
2019-01-06T21:00:38.407Z,2.10
2019-01-06T21:03:12.064Z,2.20
2019-01-06T21:05:45.882Z,2.20
2019-01-06T21:08:19.330Z,2.20
2019-01-06T21:11:55.228Z,2.20
2019-01-06T21:14:43.862Z,2.20
2019-01-06T21:17:25.378Z,2.30
2019-01-06T21:20:13.855Z,2.30
2019-01-06T21:23:51.662Z,2.30
2019-01-06T21:26:30.577Z,2.30
2019-01-06T21:31:06.252Z,2.30
2019-01-06T21:35:42.426Z,2.30
2019-01-06T21:38:17.248Z,2.30
2019-01-06T21:40:51.213Z,2.30
2019-01-06T21:43:25.063Z,2.30
2019-01-06T21:46:03.494Z,2.40
2019-01-06T21:48:39.331Z,2.40
2019-01-06T21:51:13.746Z,2.40
2019-01-06T21:55:49.023Z,2.40
2019-01-06T21:58:22.659Z,2.40
2019-01-06T22:02:59.183Z,2.40
2019-01-06T22:05:32.596Z,2.40
2019-01-06T22:10:12.333Z,2.40
2019-01-06T22:12:47.877Z,2.50
2019-01-06T22:16:24.756Z,2.50
2019-01-06T22:18:58.453Z,2.50
2019-01-06T22:23:35.550Z,2.50
2019-01-06T22:26:09.301Z,2.50
2019-01-06T22:28:49.006Z,2.50
2019-01-06T22:31:26.711Z,2.40
2019-01-06T22:34:00.822Z,2.40
2019-01-06T22:36:34.489Z,2.40
2019-01-06T22:39:09.118Z,2.40
2019-01-06T22:41:48.529Z,2.40
2019-01-06T22:45:22.673Z,2.40
2019-01-06T22:47:57.079Z,2.40
2019-01-06T22:50:31.843Z,2.40
2019-01-06T22:54:11.552Z,2.50
2019-01-06T22:56:50.347Z,2.50
2019-01-06T22:59:23.946Z,2.50
2019-01-06T23:01:58.433Z,2.50
2019-01-06T23:04:32.909Z,2.40
2019-01-06T23:07:06.716Z,2.40
2019-01-06T23:09:40.461Z,2.40
2019-01-06T23:12:16.523Z,2.40
2019-01-06T23:15:49.322Z,2.40
2019-01-06T23:18:23.171Z,2.40
2019-01-06T23:20:57.599Z,2.30
2019-01-06T23:23:36.352Z,2.20
2019-01-06T23:26:09.949Z,2.20
2019-01-06T23:28:42.650Z,2.30
2019-01-06T23:31:22.373Z,2.20
2019-01-06T23:34:11.882Z,2.20
2019-01-06T23:37:03.676Z,2.20
2019-01-06T23:39:40.195Z,2.10
2019-01-06T23:42:16.810Z,2.10
2019-01-06T23:44:50.561Z,2.00
2019-01-06T23:47:32.130Z,2.00
2019-01-06T23:50:05.693Z,1.90
2019-01-06T23:52:43.563Z,1.90
2019-01-06T23:55:17.304Z,1.90
2019-01-06T23:57:50.290Z,1.90
